Historyczne dane pomiarowe

Dodano dane terminowe – wersja testowa.

Dane z okresu 1951-2019

Wersja bazy: 1.34 [2019-03-16, lista zmian], aktualizacja planowana na 2019-04-15

Dane meteo z obszaru Polski uzyskane na podstawie danych udostępnionych przez Instytut Meteorologii i Gospodarki Wodnej – Państwowy Instytut Badawczy.

 

Wybierz Datę:    

       

TemperaturaWilgotnośćWiatrCiśnienieOpadyŚniegCzas trwania zjawisk
 Stacja t tx tn tng RH VA  wxwx mslp ppp RRR   cm mm wxwxwxwxwxwxwx
1994-08-14 13.6 17.0 10.5 8.9-- 5.7 5.0---- 1.7------------
1994-08-13 16.7 21.9 14.1 14.2-- 8.0 4.7---- 6.4------------
1994-08-12 17.7 22.0 16.0 15.7-- 7.7 1.0---- 0.0------------
1994-08-11 19.1 23.2 15.2 12.3-- 8.0 1.0---- 14.4------------
1994-08-10 20.0 26.5 12.7 10.6-- 3.7 0.7---- 0.0------------
1994-08-09 18.2 21.8 17.1 14.3-- 6.0 2.0---- 19.4------------
1994-08-08 21.0 24.9 18.3 17.6-- 5.3 1.3---- 2.1------------
1994-08-07 23.2 27.4 17.1 13.4-- 5.0 2.3---- 0.1------------
1994-08-06 27.0 34.0 16.3 12.6-- 4.0 1.7---- 0.0------------
1994-08-05 24.7 32.6 14.7 12.1-- 2.7 0.3---- 0.0------------
1994-08-04 23.9 29.5 16.7 13.2-- 1.0 2.7---- 0.0------------
1994-08-03 24.5 30.2 20.1 18.8-- 5.7 1.3---- 0.0------------
1994-08-02 27.2 33.0 19.6 16.2-- 6.0 1.0---- 0.0------------
1994-08-01 26.5 35.9 17.8 16.3-- 4.0 1.3---- 0.1------------
1994-07-31 27.6 35.4 16.5 13.7-- 2.7 1.7---- 0.0------------
1994-07-30 26.5 36.1 14.2 11.5-- 2.3 0.7---- 0.0------------
1994-07-29 25.6 35.5 13.3 10.1-- 0.0 0.3---- 0.0------------
1994-07-28 25.1 34.5 13.3 10.6-- 2.0 2.0---- 0.0------------
1994-07-27 25.6 33.9 13.3 10.7-- 3.0 1.3---- 0.0------------
1994-07-26 25.5 33.9 14.5 10.9-- 2.0 1.3---- 0.0------------
1994-07-25 24.1 32.3 13.6 9.6-- 1.7 1.3---- 0.0------------
1994-07-24 23.0 30.4 10.5 7.5-- 2.3 1.0---- 0.0------------
1994-07-23 21.8 29.6 10.6 8.1-- 2.3 0.7---- 0.0------------
1994-07-22 20.2 27.1 11.4 7.9-- 0.7 2.0---- 0.0------------
1994-07-21 20.1 27.9 8.0 5.2-- 1.0 0.7---- 0.0------------
1994-07-20 18.5 24.3 9.5 6.3-- 1.0 2.3---- 0.0------------
1994-07-19 18.3 23.9 11.8 9.4-- 3.0 3.7---- 0.0------------
1994-07-18 20.9 24.9 14.6 12.0-- 5.7 3.7---- 0.0------------
1994-07-17 21.2 27.2 15.8 13.5-- 7.3 0.7---- 0.0------------
1994-07-16 22.9 29.6 15.7 12.9-- 3.3 0.7---- 0.7------------
1994-07-15 24.0 30.0 15.9 12.8-- 3.7 1.3---- 0.0------------
1994-07-14 23.0 31.0 14.4 11.8-- 4.0 1.3---- 0.0------------
1994-07-13 23.0 29.9 13.6 10.6-- 1.7 2.7---- 0.0------------
1994-07-12 23.0 27.9 15.7 12.7-- 1.7 1.0---- 0.0------------
1994-07-11 20.2 26.9 13.5 10.3-- 1.7 2.0---- 0.0------------
1994-07-10 17.7 24.6 11.3 9.6-- 5.3 3.7---- 0.0------------
1994-07-09 14.3 17.9 12.0 11.2-- 8.0 1.7---- 5.6------------
1994-07-08 14.6 21.5 13.0 12.3-- 8.0 3.7---- 21.0------------
1994-07-07 19.1 26.9 9.0 6.0-- 4.0 1.0---- 8.1------------
1994-07-06 19.3 24.2 10.8 6.4-- 4.0 0.7---- 0.0------------
1994-07-05 19.4 25.7 12.8 9.1-- 4.7 3.3---- 0.0------------
1994-07-04 20.7 27.6 9.6 6.4-- 1.0 3.0---- 0.0------------
1994-07-03 19.1 26.1 9.0 6.2-- 1.0 2.3---- 0.0------------
1994-07-02 18.0 24.1 8.6 4.7-- 0.3 2.0---- 0.0------------
1994-07-01 17.7 22.8 9.0 4.9-- 3.0 2.0---- 0.0------------
1994-06-30 22.0 28.9 18.2 16.1-- 4.0 3.0---- 0.0------------
1994-06-29 25.1 32.1 15.3 12.6-- 2.0 1.3---- 0.0------------
1994-06-28 23.3 29.6 16.9 13.8-- 0.7 1.0---- 0.0------------
1994-06-27 23.1 29.7 13.7 10.3-- 3.3 3.0---- 0.0------------
1994-06-26 22.1 30.4 9.0 6.2-- 1.3 1.0---- 0.0------------
1994-06-25 15.9 23.5 3.2 1.3-- 0.3 1.0---- 0.0------------
1994-06-24 13.8 19.0 6.7 4.2-- 2.0 4.0---- 0.0------------
1994-06-23 16.1 20.9 13.1 11.1-- 2.0 6.7---- 0.0------------
1994-06-22 17.8 24.2 8.9 7.1-- 5.0 4.7---- 0.0------------
1994-06-21 14.9 20.9 5.0 2.3-- 2.7 1.0---- 0.0------------
1994-06-20 16.6 19.9 14.7 14.2-- 3.7 5.0---- 0.0------------
1994-06-19 16.2 21.5 11.6 11.0-- 6.3 3.3---- 0.0------------
1994-06-18 12.4 18.4 4.2 1.1-- 6.3 2.0---- 5.8------------
1994-06-17 10.5 13.7 7.3 7.5-- 5.0 4.3---- 1.0------------
1994-06-16 11.2 15.7 8.0 4.2-- 6.7 5.0---- 0.6------------
243.3 ms

 

Źródłem pochodzenia danych jest Instytut Meteorologii i Gospodarki Wodnej – Państwowy Instytut Badawczy. Dane Instytutu Meteorologii i Gospodarki Wodnej – Państwowego Instytutu Badawczego zostały przetworzone.

Dane źródłowe można odnaleźć na stronie https://dane.imgw.pl